createdAt,value
2017-12-22T00:00:00.066Z,79.01
2017-12-22T00:01:05.846Z,79.00
2017-12-22T00:02:11.614Z,79.04
2017-12-22T00:03:18.905Z,79.04
2017-12-22T00:04:25.488Z,79.17
2017-12-22T00:05:31.258Z,79.09
2017-12-22T00:06:37.016Z,79.12
2017-12-22T00:07:42.762Z,79.10
2017-12-22T00:08:48.550Z,79.14
2017-12-22T00:09:55.114Z,79.16
2017-12-22T00:11:00.868Z,79.15
2017-12-22T00:12:06.625Z,79.10
2017-12-22T00:13:12.360Z,79.03
2017-12-22T00:14:18.193Z,78.97
2017-12-22T00:15:23.607Z,78.89
2017-12-22T00:16:30.101Z,78.84
2017-12-22T00:17:35.833Z,78.82
2017-12-22T00:18:41.584Z,78.78
2017-12-22T00:19:47.367Z,78.78
2017-12-22T00:20:53.127Z,78.77
2017-12-22T00:21:59.620Z,78.78
2017-12-22T00:23:05.375Z,78.71
2017-12-22T00:24:11.128Z,78.63
2017-12-22T00:25:16.917Z,78.58
2017-12-22T00:26:22.649Z,78.56
2017-12-22T00:27:29.153Z,78.52
2017-12-22T00:28:34.212Z,78.49
2017-12-22T00:29:39.945Z,78.47
2017-12-22T00:30:45.740Z,78.47
2017-12-22T00:31:51.587Z,78.51
2017-12-22T00:32:57.347Z,78.54
2017-12-22T00:34:03.100Z,78.48
2017-12-22T00:35:08.851Z,78.44
2017-12-22T00:36:14.334Z,78.52
2017-12-22T00:37:20.093Z,78.59
2017-12-22T00:38:25.849Z,78.59
2017-12-22T00:39:31.281Z,78.54
2017-12-22T00:40:36.588Z,78.59
2017-12-22T00:41:42.388Z,78.63
2017-12-22T00:42:48.141Z,78.64
2017-12-22T00:43:54.645Z,78.66
2017-12-22T00:45:00.384Z,78.70
2017-12-22T00:46:06.139Z,78.75
2017-12-22T00:47:11.947Z,78.81
2017-12-22T00:48:17.699Z,78.76
2017-12-22T00:49:23.464Z,78.69
2017-12-22T00:50:29.214Z,78.65
2017-12-22T00:51:34.998Z,78.59
2017-12-22T00:52:41.536Z,78.54
2017-12-22T00:53:48.776Z,78.52
2017-12-22T00:54:54.521Z,78.46
2017-12-22T00:56:00.268Z,78.43
2017-12-22T00:57:06.036Z,78.42
2017-12-22T00:58:11.606Z,78.38
2017-12-22T00:59:17.353Z,78.34
2017-12-22T01:00:23.124Z,78.33
2017-12-22T01:01:28.887Z,78.31
2017-12-22T01:02:34.631Z,78.33
2017-12-22T01:03:41.177Z,78.28
2017-12-22T01:04:46.940Z,78.23
2017-12-22T01:05:53.673Z,78.24
2017-12-22T01:06:59.489Z,78.30
2017-12-22T01:08:05.250Z,78.27
2017-12-22T01:09:11.659Z,78.23
2017-12-22T01:10:18.213Z,78.25
2017-12-22T01:11:23.975Z,78.29
2017-12-22T01:12:29.844Z,78.29
2017-12-22T01:13:35.604Z,78.20
2017-12-22T01:14:41.396Z,78.22
2017-12-22T01:15:52.499Z,78.15
2017-12-22T01:17:03.584Z,78.09
2017-12-22T01:18:14.761Z,78.09
2017-12-22T01:19:20.703Z,78.13
2017-12-22T01:20:26.475Z,78.17
2017-12-22T01:21:32.987Z,78.18
2017-12-22T01:22:38.746Z,78.18
2017-12-22T01:23:44.512Z,78.17
2017-12-22T01:24:49.944Z,78.09
2017-12-22T01:25:57.250Z,78.00
2017-12-22T01:27:02.989Z,77.97
2017-12-22T01:28:08.747Z,77.89
2017-12-22T01:29:14.495Z,77.90
2017-12-22T01:30:20.241Z,77.89
2017-12-22T01:31:26.013Z,77.90
2017-12-22T01:32:31.780Z,77.85
2017-12-22T01:33:38.285Z,77.87
2017-12-22T01:34:44.035Z,77.85
2017-12-22T01:35:49.793Z,77.87
2017-12-22T01:36:55.371Z,77.86
2017-12-22T01:38:01.911Z,77.91
2017-12-22T01:39:07.675Z,77.92
2017-12-22T01:40:13.424Z,77.93
2017-12-22T01:41:19.071Z,77.95
2017-12-22T01:42:24.842Z,77.98
2017-12-22T01:43:30.582Z,77.92
2017-12-22T01:44:36.321Z,77.90
2017-12-22T01:45:42.344Z,77.91
2017-12-22T01:46:49.398Z,77.89
2017-12-22T01:47:55.182Z,77.82
2017-12-22T01:49:00.932Z,77.84
2017-12-22T01:50:05.794Z,77.84
2017-12-22T01:51:12.302Z,77.78
2017-12-22T01:52:18.070Z,77.70
2017-12-22T01:53:24.096Z,77.68
2017-12-22T01:54:29.855Z,77.71
2017-12-22T01:55:35.596Z,77.80
2017-12-22T01:56:41.608Z,77.81
2017-12-22T01:57:47.467Z,77.79
2017-12-22T01:58:53.238Z,77.85
2017-12-22T01:59:58.977Z,77.87
2017-12-22T02:01:04.517Z,77.89
2017-12-22T02:02:10.279Z,77.93
2017-12-22T02:03:16.805Z,77.99
2017-12-22T02:04:23.024Z,78.08
2017-12-22T02:05:28.802Z,78.13
2017-12-22T02:06:35.327Z,78.19
2017-12-22T02:07:41.072Z,78.23
2017-12-22T02:08:46.814Z,78.30
2017-12-22T02:09:52.599Z,78.36
2017-12-22T02:10:58.561Z,78.49
2017-12-22T02:12:04.877Z,78.40
2017-12-22T02:13:10.610Z,78.42
2017-12-22T02:14:16.374Z,78.51
2017-12-22T02:15:22.147Z,78.55
2017-12-22T02:16:28.662Z,78.60
2017-12-22T02:17:34.418Z,78.65
2017-12-22T02:18:40.149Z,78.61
2017-12-22T02:19:45.703Z,78.54
2017-12-22T02:20:51.484Z,78.58
2017-12-22T02:21:57.242Z,78.62
2017-12-22T02:23:03.069Z,78.68
2017-12-22T02:24:08.818Z,78.67
2017-12-22T02:25:14.575Z,78.66
2017-12-22T02:26:20.332Z,78.65
2017-12-22T02:27:26.098Z,78.69
2017-12-22T02:28:31.852Z,78.83
2017-12-22T02:29:38.351Z,78.84
2017-12-22T02:30:44.090Z,78.87
2017-12-22T02:31:49.861Z,78.86
2017-12-22T02:32:55.622Z,78.87
2017-12-22T02:34:01.718Z,78.98
2017-12-22T02:35:07.469Z,79.10
2017-12-22T02:36:13.206Z,79.21
2017-12-22T02:37:19.027Z,79.22
2017-12-22T02:38:24.781Z,79.23
2017-12-22T02:39:30.517Z,79.24
2017-12-22T02:40:36.285Z,79.23
2017-12-22T02:41:42.020Z,79.23
2017-12-22T02:42:47.843Z,79.28
2017-12-22T02:43:53.610Z,79.26
2017-12-22T02:44:59.374Z,79.24
2017-12-22T02:46:05.105Z,79.26
2017-12-22T02:47:10.860Z,79.34
2017-12-22T02:48:16.613Z,79.32
2017-12-22T02:49:23.130Z,79.24
2017-12-22T02:50:29.985Z,79.13
2017-12-22T02:51:35.746Z,79.11
2017-12-22T02:52:41.504Z,79.08
2017-12-22T02:53:47.280Z,79.03
2017-12-22T02:54:53.791Z,79.03
2017-12-22T02:55:59.548Z,78.99
2017-12-22T02:57:05.304Z,78.95
2017-12-22T02:58:11.025Z,78.89
2017-12-22T02:59:17.417Z,78.91
2017-12-22T03:00:23.944Z,78.94
2017-12-22T03:01:29.703Z,79.04
2017-12-22T03:02:36.230Z,79.01
2017-12-22T03:03:41.953Z,78.91
2017-12-22T03:04:47.728Z,78.93
2017-12-22T03:05:53.473Z,78.94
2017-12-22T03:06:59.227Z,78.99
2017-12-22T03:08:04.968Z,78.97
2017-12-22T03:09:10.733Z,78.99
2017-12-22T03:10:17.259Z,78.95
2017-12-22T03:11:23.001Z,78.97
2017-12-22T03:12:28.739Z,79.12
2017-12-22T03:13:35.288Z,79.22
2017-12-22T03:14:41.044Z,79.35
2017-12-22T03:15:46.813Z,79.33
2017-12-22T03:16:53.316Z,79.30
2017-12-22T03:17:59.058Z,79.31
2017-12-22T03:19:04.800Z,79.44
2017-12-22T03:20:10.540Z,79.44
2017-12-22T03:21:16.294Z,79.49
2017-12-22T03:22:22.034Z,79.39
2017-12-22T03:23:27.796Z,79.35
2017-12-22T03:24:33.813Z,79.22
2017-12-22T03:25:39.564Z,79.16
2017-12-22T03:26:45.316Z,79.11
2017-12-22T03:27:51.069Z,79.02
2017-12-22T03:28:56.836Z,79.00
2017-12-22T03:30:03.431Z,79.06
2017-12-22T03:31:09.393Z,79.07
2017-12-22T03:32:15.166Z,79.14
2017-12-22T03:33:20.899Z,79.18
2017-12-22T03:34:26.665Z,79.22
2017-12-22T03:35:33.195Z,79.09
2017-12-22T03:36:38.948Z,79.00
2017-12-22T03:37:44.738Z,78.89
2017-12-22T03:38:50.487Z,78.90
2017-12-22T03:39:56.244Z,78.93
2017-12-22T03:41:01.973Z,78.97
2017-12-22T03:42:07.776Z,79.01
2017-12-22T03:43:14.309Z,79.06
2017-12-22T03:44:20.061Z,79.00
2017-12-22T03:45:27.374Z,78.96
2017-12-22T03:46:33.110Z,78.96
2017-12-22T03:47:38.855Z,79.07
2017-12-22T03:48:44.637Z,79.09
2017-12-22T03:49:50.384Z,79.12
2017-12-22T03:50:56.112Z,78.95
2017-12-22T03:52:01.857Z,78.83
2017-12-22T03:53:07.606Z,78.79
2017-12-22T03:54:13.360Z,78.79
2017-12-22T03:55:20.606Z,78.78
2017-12-22T03:56:26.367Z,78.74
2017-12-22T03:57:32.115Z,78.68
2017-12-22T03:58:37.844Z,78.59
2017-12-22T03:59:43.596Z,78.50
2017-12-22T04:00:49.337Z,78.51
2017-12-22T04:01:55.098Z,78.49
2017-12-22T04:03:00.848Z,78.49
2017-12-22T04:04:07.368Z,78.47
2017-12-22T04:05:13.164Z,78.52
2017-12-22T04:06:18.916Z,78.49
2017-12-22T04:07:24.649Z,78.51
2017-12-22T04:08:30.399Z,78.46
2017-12-22T04:09:36.150Z,78.49
2017-12-22T04:10:41.927Z,78.40
2017-12-22T04:11:47.670Z,78.41
2017-12-22T04:12:53.430Z,78.50
2017-12-22T04:13:59.175Z,78.56
2017-12-22T04:15:05.709Z,78.63
2017-12-22T04:16:11.502Z,78.57
2017-12-22T04:17:17.245Z,78.54
2017-12-22T04:18:22.981Z,78.60
2017-12-22T04:19:28.718Z,78.60
2017-12-22T04:20:34.502Z,78.59
2017-12-22T04:21:40.307Z,78.62
2017-12-22T04:22:46.064Z,78.55
2017-12-22T04:23:52.026Z,78.56
2017-12-22T04:24:57.819Z,78.53
2017-12-22T04:26:04.270Z,78.59
2017-12-22T04:27:10.213Z,78.56
2017-12-22T04:28:15.962Z,78.60
2017-12-22T04:29:22.485Z,78.62
2017-12-22T04:30:28.243Z,78.62
2017-12-22T04:31:33.972Z,78.60
2017-12-22T04:32:39.754Z,78.59
2017-12-22T04:33:46.272Z,78.60
2017-12-22T04:34:52.008Z,78.55
2017-12-22T04:35:57.773Z,78.48
2017-12-22T04:37:03.509Z,78.44
2017-12-22T04:38:09.359Z,78.39
2017-12-22T04:39:15.126Z,78.42
2017-12-22T04:40:21.653Z,78.36
2017-12-22T04:41:27.407Z,78.29
2017-12-22T04:42:34.250Z,78.24
2017-12-22T04:43:40.050Z,78.20
2017-12-22T04:44:45.804Z,78.14
2017-12-22T04:45:51.548Z,78.12
2017-12-22T04:46:57.295Z,78.06
2017-12-22T04:48:03.099Z,78.06
2017-12-22T04:49:09.081Z,78.05
2017-12-22T04:50:14.831Z,78.04
2017-12-22T04:51:20.558Z,78.03
2017-12-22T04:52:26.285Z,78.00
2017-12-22T04:53:32.038Z,77.95
2017-12-22T04:54:37.811Z,77.94
2017-12-22T04:55:43.573Z,77.81
2017-12-22T04:56:49.303Z,77.68
2017-12-22T04:57:55.032Z,77.57
2017-12-22T04:59:00.783Z,77.45
2017-12-22T05:00:06.539Z,77.42
2017-12-22T05:01:12.283Z,77.39
2017-12-22T05:02:18.031Z,77.33
2017-12-22T05:03:24.524Z,77.29
2017-12-22T05:04:30.271Z,77.29
2017-12-22T05:05:36.045Z,77.24
2017-12-22T05:06:41.798Z,77.17
2017-12-22T05:07:47.544Z,77.12
2017-12-22T05:08:53.296Z,77.09
2017-12-22T05:09:59.806Z,77.06
2017-12-22T05:11:05.573Z,76.99
2017-12-22T05:12:11.304Z,76.87
2017-12-22T05:13:17.046Z,76.83
2017-12-22T05:14:22.829Z,76.82
2017-12-22T05:15:28.756Z,76.81
2017-12-22T05:16:34.528Z,76.80
2017-12-22T05:17:40.777Z,76.76
2017-12-22T05:18:46.517Z,76.70
2017-12-22T05:19:53.017Z,76.66
2017-12-22T05:20:58.805Z,76.61
2017-12-22T05:22:05.356Z,76.58
2017-12-22T05:23:11.119Z,76.59
2017-12-22T05:24:17.624Z,76.59
2017-12-22T05:25:23.383Z,76.57
2017-12-22T05:26:29.156Z,76.59
2017-12-22T05:27:35.805Z,76.59
2017-12-22T05:28:41.556Z,76.60
2017-12-22T05:29:48.046Z,76.63
2017-12-22T05:30:53.784Z,76.60
2017-12-22T05:31:59.543Z,76.65
2017-12-22T05:33:05.308Z,76.72
2017-12-22T05:34:11.103Z,76.76
2017-12-22T05:35:16.838Z,76.79
2017-12-22T05:36:22.560Z,76.76
2017-12-22T05:37:29.093Z,76.78
2017-12-22T05:38:34.862Z,76.86
2017-12-22T05:39:41.591Z,76.88
2017-12-22T05:40:47.340Z,76.89
2017-12-22T05:41:53.099Z,76.91
2017-12-22T05:42:58.822Z,76.95
2017-12-22T05:44:04.586Z,76.92
2017-12-22T05:45:10.337Z,76.95
2017-12-22T05:46:16.853Z,76.92
2017-12-22T05:47:22.604Z,76.94
2017-12-22T05:48:28.344Z,76.94
2017-12-22T05:49:34.109Z,76.95
2017-12-22T05:50:39.873Z,77.06
2017-12-22T05:51:45.627Z,77.03
2017-12-22T05:52:51.562Z,77.06
2017-12-22T05:53:57.288Z,77.07
2017-12-22T05:55:03.831Z,77.08
2017-12-22T05:56:09.644Z,77.14
2017-12-22T05:57:15.410Z,77.20
2017-12-22T05:58:21.264Z,77.16
2017-12-22T05:59:27.925Z,77.22
2017-12-22T06:00:33.754Z,77.31
2017-12-22T06:01:39.772Z,77.31
2017-12-22T06:02:45.534Z,77.36
2017-12-22T06:03:51.320Z,77.34
2017-12-22T06:04:57.810Z,77.41
2017-12-22T06:06:03.612Z,77.43
2017-12-22T06:07:10.120Z,77.40
2017-12-22T06:08:15.869Z,77.40
2017-12-22T06:09:21.628Z,77.41
2017-12-22T06:10:27.356Z,77.38
2017-12-22T06:11:33.127Z,77.41
2017-12-22T06:12:39.644Z,77.49
2017-12-22T06:13:45.380Z,77.58
2017-12-22T06:14:51.131Z,77.59
2017-12-22T06:15:56.873Z,77.66
2017-12-22T06:17:02.661Z,77.67
2017-12-22T06:18:08.895Z,77.61
2017-12-22T06:19:14.656Z,77.59
2017-12-22T06:20:21.172Z,77.62
2017-12-22T06:21:27.174Z,77.68
2017-12-22T06:22:32.934Z,77.66
2017-12-22T06:23:38.674Z,77.76
2017-12-22T06:24:44.413Z,77.76
2017-12-22T06:25:50.169Z,77.80
2017-12-22T06:26:55.972Z,77.83
2017-12-22T06:28:02.519Z,77.87
2017-12-22T06:29:08.268Z,77.88
2017-12-22T06:30:14.792Z,77.99
2017-12-22T06:31:20.545Z,77.99
2017-12-22T06:32:26.288Z,78.08
2017-12-22T06:33:32.063Z,78.09
2017-12-22T06:34:38.600Z,78.16
2017-12-22T06:35:45.120Z,78.18
2017-12-22T06:36:50.891Z,78.13
2017-12-22T06:37:56.645Z,78.10
2017-12-22T06:39:03.007Z,78.10
2017-12-22T06:40:09.528Z,78.09
2017-12-22T06:41:15.305Z,78.03
2017-12-22T06:42:21.277Z,78.01
2017-12-22T06:43:27.044Z,77.92
2017-12-22T06:44:32.823Z,77.92
2017-12-22T06:45:38.559Z,77.91
2017-12-22T06:46:44.596Z,77.92
2017-12-22T06:47:50.316Z,77.99
2017-12-22T06:48:56.096Z,78.04
2017-12-22T06:50:01.931Z,78.08
2017-12-22T06:51:07.657Z,78.03
2017-12-22T06:52:13.418Z,77.99
2017-12-22T06:53:19.165Z,77.91
2017-12-22T06:54:24.925Z,77.88
2017-12-22T06:55:31.486Z,77.83
2017-12-22T06:56:38.009Z,77.85
2017-12-22T06:57:43.733Z,77.87
2017-12-22T06:58:49.504Z,77.77
2017-12-22T06:59:56.001Z,77.77
2017-12-22T07:01:01.775Z,77.74
2017-12-22T07:02:09.061Z,77.71
2017-12-22T07:03:14.805Z,77.64
2017-12-22T07:04:20.559Z,77.53
2017-12-22T07:05:26.308Z,77.45
2017-12-22T07:06:32.087Z,77.34
2017-12-22T07:07:37.893Z,77.28
2017-12-22T07:08:43.676Z,77.18
2017-12-22T07:09:49.431Z,77.08
2017-12-22T07:10:55.176Z,77.01
2017-12-22T07:12:00.935Z,76.93
2017-12-22T07:13:06.495Z,76.96
2017-12-22T07:14:12.262Z,76.95
2017-12-22T07:15:18.752Z,76.92
2017-12-22T07:16:24.500Z,76.87
2017-12-22T07:17:30.270Z,76.79
2017-12-22T07:18:36.068Z,76.75
2017-12-22T07:19:41.806Z,76.67
2017-12-22T07:20:47.544Z,76.60
2017-12-22T07:21:53.306Z,76.53
2017-12-22T07:22:59.060Z,76.51
2017-12-22T07:24:04.787Z,76.45
2017-12-22T07:25:10.526Z,76.34
2017-12-22T07:26:16.282Z,76.24
2017-12-22T07:27:22.020Z,76.12
2017-12-22T07:28:27.801Z,76.07
2017-12-22T07:29:33.525Z,76.02
2017-12-22T07:30:39.292Z,75.96
2017-12-22T07:31:45.803Z,75.98
2017-12-22T07:32:51.533Z,75.95
2017-12-22T07:33:57.296Z,75.93
2017-12-22T07:35:03.047Z,75.92
2017-12-22T07:36:08.790Z,75.92
2017-12-22T07:37:14.528Z,75.85
2017-12-22T07:38:20.268Z,75.79
2017-12-22T07:39:26.084Z,75.75
2017-12-22T07:40:31.838Z,75.63
2017-12-22T07:41:37.606Z,75.59
2017-12-22T07:42:43.348Z,75.59
2017-12-22T07:43:49.872Z,75.54
2017-12-22T07:44:55.667Z,75.43
2017-12-22T07:46:02.258Z,75.39
2017-12-22T07:47:08.041Z,75.33
2017-12-22T07:48:13.790Z,75.22
2017-12-22T07:49:19.562Z,75.16
2017-12-22T07:50:26.144Z,75.07
2017-12-22T07:51:31.869Z,75.05
2017-12-22T07:52:38.367Z,75.03
2017-12-22T07:53:44.097Z,74.99
2017-12-22T07:54:49.861Z,74.97
2017-12-22T07:55:55.654Z,74.94
2017-12-22T07:57:01.412Z,74.84
2017-12-22T07:58:07.161Z,74.77
2017-12-22T07:59:12.896Z,74.74
2017-12-22T08:00:18.635Z,74.66
2017-12-22T08:01:24.398Z,74.58
2017-12-22T08:02:30.138Z,74.53
2017-12-22T08:03:35.882Z,74.55
2017-12-22T08:04:41.626Z,74.55
2017-12-22T08:05:47.374Z,74.55
2017-12-22T08:06:53.143Z,74.58
2017-12-22T08:07:58.917Z,74.68
2017-12-22T08:09:04.104Z,74.71
2017-12-22T08:10:09.868Z,74.67
2017-12-22T08:11:16.381Z,74.56
2017-12-22T08:12:22.177Z,74.57
2017-12-22T08:13:28.700Z,74.59
2017-12-22T08:14:34.283Z,74.54
2017-12-22T08:15:40.024Z,74.49
2017-12-22T08:16:45.792Z,74.47
2017-12-22T08:17:51.560Z,74.46
2017-12-22T08:18:57.321Z,74.47
2017-12-22T08:20:03.092Z,74.36
2017-12-22T08:21:08.856Z,74.29
2017-12-22T08:22:14.600Z,74.22
2017-12-22T08:23:20.580Z,74.14
2017-12-22T08:24:26.314Z,73.99
2017-12-22T08:25:32.110Z,73.88
2017-12-22T08:26:37.892Z,73.78
2017-12-22T08:27:43.648Z,73.70
2017-12-22T08:28:50.203Z,73.63
2017-12-22T08:29:55.952Z,73.55
2017-12-22T08:31:03.203Z,73.51
2017-12-22T08:32:08.935Z,73.44
2017-12-22T08:33:14.682Z,73.38
2017-12-22T08:34:20.456Z,73.42
2017-12-22T08:35:26.184Z,73.48
2017-12-22T08:36:31.927Z,73.46
2017-12-22T08:37:37.903Z,73.49
2017-12-22T08:38:44.461Z,73.48
2017-12-22T08:39:50.228Z,73.48
2017-12-22T08:40:55.999Z,73.48
2017-12-22T08:42:01.797Z,73.52
2017-12-22T08:43:07.572Z,73.53
2017-12-22T08:44:13.310Z,73.52
2017-12-22T08:45:19.095Z,73.57
2017-12-22T08:46:24.851Z,73.55
2017-12-22T08:47:31.352Z,73.52
2017-12-22T08:48:37.109Z,73.48
2017-12-22T08:49:42.863Z,73.41
2017-12-22T08:50:48.654Z,73.39
2017-12-22T08:51:54.390Z,73.44
2017-12-22T08:53:00.577Z,73.53
2017-12-22T08:54:06.339Z,73.58
2017-12-22T08:55:12.116Z,73.56
2017-12-22T08:56:18.659Z,73.53
2017-12-22T08:57:25.923Z,73.47
2017-12-22T08:58:32.420Z,73.43
2017-12-22T08:59:38.191Z,73.38
2017-12-22T09:00:43.933Z,73.36
2017-12-22T09:01:49.724Z,73.42
2017-12-22T09:02:55.455Z,73.43
2017-12-22T09:04:01.206Z,73.39
2017-12-22T09:05:07.742Z,73.36
2017-12-22T09:06:13.484Z,73.40
2017-12-22T09:07:19.261Z,73.40
2017-12-22T09:08:25.779Z,73.38
2017-12-22T09:10:04.763Z,73.41
2017-12-22T09:11:27.800Z,73.46
2017-12-22T09:12:38.108Z,73.42
2017-12-22T09:13:44.651Z,73.37
2017-12-22T09:14:50.393Z,73.33
2017-12-22T09:15:56.140Z,73.29
2017-12-22T09:17:01.880Z,73.22
2017-12-22T09:18:07.683Z,73.21
2017-12-22T09:19:13.444Z,73.15
2017-12-22T09:20:19.201Z,73.12
2017-12-22T09:21:24.940Z,73.11
2017-12-22T09:22:30.683Z,73.08
2017-12-22T09:23:36.468Z,73.08
2017-12-22T09:24:42.993Z,73.01
2017-12-22T09:25:48.753Z,72.88
2017-12-22T09:26:54.519Z,72.75
2017-12-22T09:28:01.026Z,72.62
2017-12-22T09:29:07.072Z,72.49
2017-12-22T09:30:12.902Z,72.44
2017-12-22T09:31:18.650Z,72.39
2017-12-22T09:32:24.424Z,72.30
2017-12-22T09:33:30.940Z,72.21
2017-12-22T09:34:36.734Z,72.12
2017-12-22T09:35:42.469Z,72.03
2017-12-22T09:36:48.231Z,71.94
2017-12-22T09:37:54.800Z,71.85
2017-12-22T09:39:01.370Z,71.70
2017-12-22T09:40:07.130Z,71.61
2017-12-22T09:41:12.888Z,71.55
2017-12-22T09:42:18.653Z,71.39
2017-12-22T09:43:24.403Z,71.22
2017-12-22T09:44:30.149Z,71.13
2017-12-22T09:45:35.910Z,71.09
2017-12-22T09:46:42.436Z,71.03
2017-12-22T09:47:48.174Z,71.01
2017-12-22T09:48:53.937Z,71.08
2017-12-22T09:49:59.756Z,71.07
2017-12-22T09:51:05.577Z,71.04
2017-12-22T09:52:12.264Z,70.88
2017-12-22T09:53:18.009Z,70.84
2017-12-22T09:54:23.792Z,70.92
2017-12-22T09:55:29.545Z,70.86
2017-12-22T09:56:35.309Z,70.89
2017-12-22T09:57:41.061Z,70.70
2017-12-22T09:58:46.812Z,70.50
2017-12-22T09:59:52.548Z,70.38
2017-12-22T10:00:58.342Z,70.40
2017-12-22T10:02:04.123Z,70.49
2017-12-22T10:03:09.856Z,70.53
2017-12-22T10:04:15.614Z,70.58
2017-12-22T10:05:21.364Z,70.59
2017-12-22T10:06:27.097Z,70.64
2017-12-22T10:07:32.882Z,70.72
2017-12-22T10:08:38.641Z,70.77
2017-12-22T10:09:44.391Z,70.64
2017-12-22T10:10:50.159Z,70.55
2017-12-22T10:11:57.768Z,70.57
2017-12-22T10:13:03.565Z,70.49
2017-12-22T10:14:09.339Z,70.47
2017-12-22T10:15:15.078Z,70.49
2017-12-22T10:16:20.827Z,70.47
2017-12-22T10:17:26.574Z,70.52
2017-12-22T10:18:32.336Z,70.56
2017-12-22T10:19:38.075Z,70.64
2017-12-22T10:20:43.832Z,70.58
2017-12-22T10:21:50.162Z,70.53
2017-12-22T10:22:55.930Z,70.51
2017-12-22T10:24:02.487Z,70.52
2017-12-22T10:25:09.024Z,70.56
2017-12-22T10:26:14.769Z,70.62
2017-12-22T10:27:20.543Z,70.61
2017-12-22T10:28:27.119Z,70.63
2017-12-22T10:29:32.916Z,70.59
2017-12-22T10:30:38.652Z,70.50
2017-12-22T10:31:44.550Z,70.50
2017-12-22T10:32:50.299Z,70.38
2017-12-22T10:33:56.068Z,70.26
2017-12-22T10:35:01.847Z,70.20
2017-12-22T10:36:08.401Z,70.10
2017-12-22T10:37:14.264Z,70.06
2017-12-22T10:38:20.949Z,70.06
2017-12-22T10:39:26.711Z,70.14
2017-12-22T10:40:32.480Z,70.26
2017-12-22T10:41:38.326Z,70.20
2017-12-22T10:42:44.138Z,70.23
2017-12-22T10:43:49.899Z,70.36
2017-12-22T10:44:55.683Z,70.37
2017-12-22T10:46:01.520Z,70.29
2017-12-22T10:47:07.452Z,70.13
2017-12-22T10:48:14.917Z,70.17
2017-12-22T10:49:21.527Z,70.20
2017-12-22T10:50:27.441Z,70.12
2017-12-22T10:51:34.052Z,70.23
2017-12-22T10:52:39.812Z,70.40
2017-12-22T10:53:45.580Z,70.45
2017-12-22T10:54:51.700Z,70.49
2017-12-22T10:55:57.611Z,70.52
2017-12-22T10:57:03.484Z,70.49
2017-12-22T10:58:09.342Z,70.57
2017-12-22T10:59:15.129Z,70.55
2017-12-22T11:00:20.882Z,70.59
2017-12-22T11:01:26.628Z,70.64
2017-12-22T11:02:32.405Z,70.67
2017-12-22T11:03:38.620Z,70.69
2017-12-22T11:04:44.368Z,70.58
2017-12-22T11:05:50.505Z,70.78
2017-12-22T11:06:56.537Z,70.84
2017-12-22T11:08:03.084Z,70.95
2017-12-22T11:09:09.859Z,70.70
2017-12-22T11:10:15.597Z,70.56
2017-12-22T11:11:22.165Z,70.65
2017-12-22T11:12:28.749Z,70.71
2017-12-22T11:13:34.579Z,70.77
2017-12-22T11:14:40.348Z,70.84
2017-12-22T11:15:46.230Z,70.93
2017-12-22T11:16:51.962Z,71.01
2017-12-22T11:17:58.161Z,71.00
2017-12-22T11:19:04.038Z,71.12
2017-12-22T11:20:10.756Z,71.04
2017-12-22T11:21:17.315Z,71.06
2017-12-22T11:22:24.117Z,71.17
2017-12-22T11:23:29.872Z,71.20
2017-12-22T11:24:35.941Z,71.21
2017-12-22T11:25:41.709Z,71.36
2017-12-22T11:26:48.230Z,71.36
2017-12-22T11:27:54.073Z,71.34
2017-12-22T11:29:00.247Z,71.42
2017-12-22T11:30:07.054Z,71.47
2017-12-22T11:31:13.414Z,71.58
2017-12-22T11:32:19.431Z,71.53
2017-12-22T11:33:25.244Z,71.59
2017-12-22T11:34:31.143Z,71.59
2017-12-22T11:35:36.908Z,71.53
2017-12-22T11:36:42.653Z,71.48
2017-12-22T11:37:48.419Z,71.39
2017-12-22T11:38:54.555Z,71.34
2017-12-22T11:40:00.397Z,71.24
2017-12-22T11:41:06.291Z,71.16
2017-12-22T11:42:12.808Z,71.01
2017-12-22T11:43:18.586Z,71.04
2017-12-22T11:44:25.103Z,71.14
2017-12-22T11:45:30.884Z,71.26
2017-12-22T11:46:36.701Z,71.33
2017-12-22T11:47:42.451Z,71.24
2017-12-22T11:48:48.224Z,71.18
2017-12-22T11:49:53.961Z,71.16
2017-12-22T11:51:00.488Z,71.28
2017-12-22T11:52:06.331Z,71.33
2017-12-22T11:53:12.322Z,71.41
2017-12-22T11:54:18.077Z,71.29
2017-12-22T11:55:23.832Z,70.98
2017-12-22T11:56:29.650Z,70.62
2017-12-22T11:57:35.439Z,70.50
2017-12-22T11:58:42.170Z,70.54
2017-12-22T11:59:47.925Z,70.59
2017-12-22T12:00:53.666Z,70.74
2017-12-22T12:01:59.459Z,70.84
2017-12-22T12:03:06.126Z,70.96
2017-12-22T12:04:11.972Z,71.07
2017-12-22T12:05:18.044Z,71.07
2017-12-22T12:06:23.808Z,71.01
2017-12-22T12:07:29.562Z,71.07
2017-12-22T12:08:35.321Z,71.08
2017-12-22T12:09:42.040Z,71.16
2017-12-22T12:10:47.813Z,71.21
2017-12-22T12:11:53.568Z,71.30
2017-12-22T12:12:59.758Z,71.38
2017-12-22T12:14:05.624Z,71.38
2017-12-22T12:15:11.068Z,71.39
2017-12-22T12:16:16.674Z,71.28
2017-12-22T12:17:22.420Z,71.23
2017-12-22T12:18:28.174Z,71.21
2017-12-22T12:19:33.995Z,71.18
2017-12-22T12:20:40.486Z,71.16
2017-12-22T12:21:46.244Z,71.10
2017-12-22T12:22:52.044Z,71.15
2017-12-22T12:23:57.865Z,71.20
2017-12-22T12:25:04.405Z,71.28
2017-12-22T12:26:10.190Z,71.07
2017-12-22T12:27:15.954Z,70.85
2017-12-22T12:28:21.771Z,70.86
2017-12-22T12:29:27.526Z,70.74
2017-12-22T12:30:33.341Z,70.70
2017-12-22T12:31:39.890Z,70.88
2017-12-22T12:32:45.647Z,70.83
2017-12-22T12:33:51.151Z,70.61
2017-12-22T12:34:56.912Z,70.55
2017-12-22T12:36:03.483Z,70.38
2017-12-22T12:37:10.038Z,70.35
2017-12-22T12:38:15.779Z,70.42
2017-12-22T12:39:22.341Z,70.41
2017-12-22T12:40:28.903Z,70.57
2017-12-22T12:41:35.696Z,70.75
2017-12-22T12:42:41.460Z,70.86
2017-12-22T12:43:47.218Z,70.87
2017-12-22T12:44:53.021Z,70.90
2017-12-22T12:45:58.773Z,71.02
2017-12-22T12:47:04.550Z,71.22
2017-12-22T12:48:10.308Z,71.29
2017-12-22T12:49:16.403Z,71.17
2017-12-22T12:50:22.191Z,70.87
2017-12-22T12:51:28.709Z,70.75
2017-12-22T12:52:34.471Z,70.58
2017-12-22T12:53:40.210Z,70.29
2017-12-22T12:54:45.948Z,70.09
2017-12-22T12:55:51.932Z,70.10
2017-12-22T12:56:57.824Z,70.13
2017-12-22T12:58:03.525Z,70.15
2017-12-22T12:59:10.177Z,70.15
2017-12-22T13:00:16.123Z,70.10
2017-12-22T13:01:22.633Z,70.06
2017-12-22T13:02:28.368Z,69.97
2017-12-22T13:03:34.136Z,69.94
2017-12-22T13:04:39.902Z,70.02
2017-12-22T13:05:45.649Z,70.09
2017-12-22T13:06:52.177Z,70.19
2017-12-22T13:07:59.421Z,70.24
2017-12-22T13:09:04.326Z,70.26
2017-12-22T13:10:10.333Z,70.22
2017-12-22T13:11:17.351Z,70.23
2017-12-22T13:12:23.179Z,70.23
2017-12-22T13:13:29.700Z,70.22
2017-12-22T13:14:35.465Z,70.10
2017-12-22T13:15:41.999Z,69.96
2017-12-22T13:16:47.752Z,69.91
2017-12-22T13:17:53.494Z,69.92
2017-12-22T13:18:59.331Z,69.94
2017-12-22T13:20:05.177Z,69.82
2017-12-22T13:21:11.024Z,69.85
2017-12-22T13:22:16.814Z,70.01
2017-12-22T13:23:22.814Z,70.14
2017-12-22T13:24:28.610Z,70.25
2017-12-22T13:25:34.389Z,70.21
2017-12-22T13:26:40.137Z,70.36
2017-12-22T13:27:45.900Z,70.62
2017-12-22T13:28:52.405Z,70.70
2017-12-22T13:29:58.220Z,70.79
2017-12-22T13:31:04.071Z,70.92
2017-12-22T13:32:09.825Z,70.98
2017-12-22T13:33:15.661Z,70.98
2017-12-22T13:34:21.412Z,71.05
2017-12-22T13:35:27.172Z,71.03
2017-12-22T13:36:32.944Z,70.96
2017-12-22T13:37:38.891Z,70.99
2017-12-22T13:38:45.418Z,71.04
2017-12-22T13:39:51.449Z,71.03
2017-12-22T13:40:57.186Z,70.93
2017-12-22T13:42:02.958Z,70.83
2017-12-22T13:43:08.858Z,71.01
2017-12-22T13:44:14.628Z,71.01
2017-12-22T13:45:20.411Z,70.93
2017-12-22T13:46:26.174Z,70.91
2017-12-22T13:47:31.965Z,70.90
2017-12-22T13:48:37.741Z,70.95
2017-12-22T13:49:44.285Z,70.93
2017-12-22T13:50:50.109Z,70.63
2017-12-22T13:51:56.098Z,70.54
2017-12-22T13:53:02.881Z,70.52
2017-12-22T13:54:09.026Z,70.57
2017-12-22T13:55:14.947Z,70.61
2017-12-22T13:56:21.546Z,70.60
2017-12-22T13:57:28.356Z,70.58
2017-12-22T13:58:33.956Z,70.65
2017-12-22T13:59:39.720Z,70.76
2017-12-22T14:00:45.472Z,70.77
2017-12-22T14:01:52.187Z,70.74
2017-12-22T14:02:57.956Z,70.63
2017-12-22T14:04:03.721Z,70.48
2017-12-22T14:05:09.740Z,70.34
2017-12-22T14:06:15.492Z,70.16
2017-12-22T14:07:21.236Z,70.22
2017-12-22T14:08:26.971Z,70.13
2017-12-22T14:09:32.790Z,70.14